createdAt,value
2024-01-15T00:00:22.216Z,4.49
2024-01-15T00:02:49.120Z,4.57
2024-01-15T00:05:15.982Z,4.68
2024-01-15T00:07:42.663Z,4.62
2024-01-15T00:10:09.652Z,4.60
2024-01-15T00:12:36.453Z,4.69
2024-01-15T00:15:03.478Z,4.63
2024-01-15T00:17:30.440Z,4.72
2024-01-15T00:19:57.332Z,4.69
2024-01-15T00:22:27.771Z,4.69
2024-01-15T00:24:55.807Z,4.74
2024-01-15T00:27:23.256Z,4.79
2024-01-15T00:29:51.541Z,4.79
2024-01-15T00:32:18.439Z,4.79
2024-01-15T00:34:45.288Z,4.87
2024-01-15T00:37:12.204Z,4.84
2024-01-15T00:39:39.121Z,4.89
2024-01-15T00:42:06.064Z,4.87
2024-01-15T00:44:32.791Z,4.94
2024-01-15T00:46:59.540Z,4.96
2024-01-15T00:49:28.533Z,4.98
2024-01-15T00:51:55.429Z,4.86
2024-01-15T00:54:22.156Z,4.95
2024-01-15T00:56:48.888Z,4.82
2024-01-15T00:59:18.864Z,4.93
2024-01-15T01:01:47.238Z,5.01
2024-01-15T01:04:14.204Z,5.02
2024-01-15T01:06:41.197Z,5.05
2024-01-15T01:09:08.180Z,5.04
2024-01-15T01:11:34.937Z,5.05
2024-01-15T01:14:02.920Z,5.09
2024-01-15T01:16:29.754Z,5.12
2024-01-15T01:18:56.631Z,5.18
2024-01-15T01:21:23.551Z,5.24
2024-01-15T01:23:50.278Z,5.02
2024-01-15T01:26:18.935Z,5.21
2024-01-15T01:28:45.754Z,5.17
2024-01-15T01:31:12.618Z,5.26
2024-01-15T01:33:41.022Z,5.25
2024-01-15T01:36:11.181Z,5.01
2024-01-15T01:38:39.390Z,5.35
2024-01-15T01:41:06.216Z,5.23
2024-01-15T01:43:33.031Z,5.34
2024-01-15T01:46:02.301Z,5.27
2024-01-15T01:48:30.508Z,5.26
2024-01-15T01:51:01.234Z,5.40
2024-01-15T01:53:28.970Z,5.41
2024-01-15T01:55:58.446Z,5.36
2024-01-15T01:58:26.689Z,5.42
2024-01-15T02:00:54.479Z,5.43
2024-01-15T02:03:21.867Z,5.43
2024-01-15T02:05:50.953Z,5.45
2024-01-15T02:08:18.136Z,5.32
2024-01-15T02:10:44.892Z,5.46
2024-01-15T02:13:12.222Z,5.47
2024-01-15T02:15:39.104Z,5.51
2024-01-15T02:18:08.606Z,5.36
2024-01-15T02:20:36.027Z,5.54
2024-01-15T02:23:15.552Z,5.54
2024-01-15T02:25:45.660Z,5.52
2024-01-15T02:28:14.663Z,5.36
2024-01-15T02:30:43.297Z,5.51
2024-01-15T02:33:11.730Z,5.60
2024-01-15T02:35:39.096Z,5.58
2024-01-15T02:38:07.102Z,5.57
2024-01-15T02:40:35.763Z,5.52
2024-01-15T02:43:03.244Z,5.39
2024-01-15T02:45:30.342Z,5.56
2024-01-15T02:47:57.617Z,5.56
2024-01-15T02:50:24.493Z,5.53
2024-01-15T02:52:51.458Z,5.47
2024-01-15T02:55:18.255Z,5.48
2024-01-15T02:57:45.209Z,5.51
2024-01-15T03:00:13.128Z,5.55
2024-01-15T03:02:43.666Z,5.48
2024-01-15T03:05:12.100Z,5.48
2024-01-15T03:07:39.303Z,5.33
2024-01-15T03:10:07.439Z,5.43
2024-01-15T03:12:34.305Z,5.44
2024-01-15T03:15:01.326Z,5.46
2024-01-15T03:17:28.281Z,5.48
2024-01-15T03:19:55.375Z,5.47
2024-01-15T03:22:22.167Z,5.42
2024-01-15T03:24:49.267Z,5.39
2024-01-15T03:27:16.374Z,5.30
2024-01-15T03:29:43.218Z,5.33
2024-01-15T03:32:09.973Z,5.30
2024-01-15T03:34:36.981Z,5.24
2024-01-15T03:37:04.830Z,5.24
2024-01-15T03:39:31.610Z,5.16
2024-01-15T03:41:58.793Z,5.21
2024-01-15T03:44:25.535Z,5.20
2024-01-15T03:46:52.271Z,5.23
2024-01-15T03:49:19.232Z,5.20
2024-01-15T03:51:46.368Z,5.23
2024-01-15T03:54:13.305Z,5.19
2024-01-15T03:56:40.079Z,5.18
2024-01-15T03:59:06.763Z,5.19
2024-01-15T04:01:33.574Z,5.13
2024-01-15T04:04:00.515Z,5.06
2024-01-15T04:06:27.437Z,5.23
2024-01-15T04:08:54.203Z,5.28
2024-01-15T04:11:21.007Z,5.19
2024-01-15T04:13:47.753Z,5.11
2024-01-15T04:16:14.449Z,5.26
2024-01-15T04:18:41.303Z,5.26
2024-01-15T04:21:08.076Z,5.29
2024-01-15T04:23:34.970Z,5.26
2024-01-15T04:26:01.865Z,5.18
2024-01-15T04:28:28.665Z,5.17
2024-01-15T04:30:55.670Z,5.17
2024-01-15T04:33:22.605Z,5.00
2024-01-15T04:35:50.423Z,5.11
2024-01-15T04:38:17.164Z,5.13
2024-01-15T04:40:43.926Z,5.15
2024-01-15T04:43:10.677Z,5.10
2024-01-15T04:45:37.501Z,5.03
2024-01-15T04:48:04.738Z,5.10
2024-01-15T04:50:31.598Z,5.21
2024-01-15T04:52:58.393Z,5.07
2024-01-15T04:55:25.161Z,5.18
2024-01-15T04:57:51.945Z,5.21
2024-01-15T05:00:18.873Z,5.17
2024-01-15T05:02:46.608Z,5.24
2024-01-15T05:05:13.497Z,5.19
2024-01-15T05:07:40.274Z,5.21
2024-01-15T05:10:08.885Z,5.21
2024-01-15T05:12:35.768Z,5.30
2024-01-15T05:15:02.942Z,5.33
2024-01-15T05:17:29.760Z,5.26
2024-01-15T05:19:56.679Z,5.17
2024-01-15T05:22:25.928Z,5.34
2024-01-15T05:24:52.898Z,5.39
2024-01-15T05:27:19.842Z,5.38
2024-01-15T05:29:49.211Z,5.39
2024-01-15T05:32:15.948Z,5.27
2024-01-15T05:34:42.770Z,5.44
2024-01-15T05:37:11.978Z,5.42
2024-01-15T05:39:39.063Z,5.44
2024-01-15T05:42:05.883Z,5.44
2024-01-15T05:44:32.740Z,5.52
2024-01-15T05:46:59.485Z,5.50
2024-01-15T05:49:26.382Z,5.49
2024-01-15T05:51:53.247Z,5.51
2024-01-15T05:54:21.120Z,5.42
2024-01-15T05:56:48.130Z,5.53
2024-01-15T05:59:16.105Z,5.52
2024-01-15T06:01:43.136Z,5.56
2024-01-15T06:04:10.132Z,5.56
2024-01-15T06:06:37.318Z,5.56
2024-01-15T06:09:06.816Z,5.59
2024-01-15T06:11:34.251Z,5.50
2024-01-15T06:14:04.419Z,5.57
2024-01-15T06:16:31.340Z,5.60
2024-01-15T06:18:58.650Z,5.61
2024-01-15T06:21:25.726Z,5.64
2024-01-15T06:23:52.581Z,5.47
2024-01-15T06:26:19.322Z,5.50
2024-01-15T06:28:46.451Z,5.67
2024-01-15T06:31:14.458Z,5.68
2024-01-15T06:33:41.918Z,5.67
2024-01-15T06:36:08.909Z,5.66
2024-01-15T06:38:35.742Z,5.60
2024-01-15T06:41:02.584Z,5.68
2024-01-15T06:43:29.541Z,5.67
2024-01-15T06:45:56.480Z,5.69
2024-01-15T06:48:23.546Z,5.68
2024-01-15T06:50:50.592Z,5.69
2024-01-15T06:53:17.434Z,5.67
2024-01-15T06:55:44.268Z,5.69
2024-01-15T06:58:11.888Z,5.77
2024-01-15T07:00:39.170Z,5.79
2024-01-15T07:03:06.154Z,5.80
2024-01-15T07:05:33.391Z,5.78
2024-01-15T07:08:00.384Z,5.74
2024-01-15T07:10:27.981Z,5.80
2024-01-15T07:12:54.855Z,5.87
2024-01-15T07:15:22.056Z,5.87
2024-01-15T07:17:49.018Z,5.80
2024-01-15T07:20:15.810Z,5.69
2024-01-15T07:22:42.619Z,5.87
2024-01-15T07:25:09.531Z,5.96
2024-01-15T07:27:36.532Z,5.95
2024-01-15T07:30:05.453Z,5.96
2024-01-15T07:32:32.883Z,5.98
2024-01-15T07:35:01.029Z,5.96
2024-01-15T07:37:27.916Z,6.00
2024-01-15T07:39:54.900Z,5.97
2024-01-15T07:42:22.058Z,6.03
2024-01-15T07:44:49.077Z,6.04
2024-01-15T07:47:15.865Z,6.06
2024-01-15T07:49:42.862Z,6.09
2024-01-15T07:52:11.483Z,6.14
2024-01-15T07:54:38.322Z,6.17
2024-01-15T07:57:05.392Z,6.06
2024-01-15T07:59:32.336Z,5.83
2024-01-15T08:02:00.584Z,6.19
2024-01-15T08:04:27.917Z,6.17
2024-01-15T08:06:54.916Z,6.18
2024-01-15T08:09:21.895Z,6.19
2024-01-15T08:11:51.936Z,6.27
2024-01-15T08:14:19.262Z,6.07
2024-01-15T08:16:46.021Z,6.19
2024-01-15T08:19:13.170Z,6.26
2024-01-15T08:21:40.083Z,6.19
2024-01-15T08:24:07.203Z,6.26
2024-01-15T08:26:34.113Z,6.29
2024-01-15T08:29:01.153Z,6.29
2024-01-15T08:31:28.958Z,6.33
2024-01-15T08:33:56.922Z,6.34
2024-01-15T08:36:25.461Z,6.36
2024-01-15T08:38:52.389Z,6.42
2024-01-15T08:41:19.227Z,6.57
2024-01-15T08:43:46.025Z,6.54
2024-01-15T08:46:12.942Z,6.54
2024-01-15T08:48:40.914Z,6.49
2024-01-15T08:51:09.536Z,6.58
2024-01-15T08:53:36.398Z,6.61
2024-01-15T08:56:03.328Z,6.64
2024-01-15T08:58:30.160Z,6.65
2024-01-15T09:00:57.525Z,6.67
2024-01-15T09:03:24.525Z,6.73
2024-01-15T09:05:52.314Z,6.88
2024-01-15T09:08:19.381Z,6.81
2024-01-15T09:10:47.203Z,6.85
2024-01-15T09:13:14.108Z,6.82
2024-01-15T09:15:40.937Z,6.79
2024-01-15T09:18:08.610Z,6.97
2024-01-15T09:20:36.173Z,7.00
2024-01-15T09:23:04.106Z,6.92
2024-01-15T09:25:30.973Z,7.13
2024-01-15T09:27:58.489Z,7.17
2024-01-15T09:30:25.434Z,7.21
2024-01-15T09:32:52.476Z,7.26
2024-01-15T09:35:20.316Z,7.22
2024-01-15T09:37:48.657Z,7.41
2024-01-15T09:40:16.739Z,7.37
2024-01-15T09:42:45.395Z,7.55
2024-01-15T09:45:13.478Z,7.59
2024-01-15T09:47:45.530Z,7.73
2024-01-15T09:50:16.339Z,7.77
2024-01-15T09:52:45.299Z,7.85
2024-01-15T09:55:13.233Z,7.94
2024-01-15T09:57:40.712Z,7.98
2024-01-15T10:00:12.330Z,7.99
2024-01-15T10:02:39.502Z,8.07
2024-01-15T10:05:06.668Z,8.10
2024-01-15T10:07:37.299Z,8.22
2024-01-15T10:10:07.131Z,8.27
2024-01-15T10:12:34.261Z,8.25
2024-01-15T10:15:01.215Z,8.30
2024-01-15T10:17:29.412Z,8.37
2024-01-15T10:19:56.635Z,8.41
2024-01-15T10:22:24.450Z,8.45
2024-01-15T10:24:51.450Z,8.41
2024-01-15T10:27:18.544Z,8.46
2024-01-15T10:29:45.442Z,8.51
2024-01-15T10:32:13.143Z,8.49
2024-01-15T10:34:44.887Z,8.34
2024-01-15T10:37:12.150Z,8.51
2024-01-15T10:39:40.379Z,8.54
2024-01-15T10:42:08.415Z,8.57
2024-01-15T10:44:36.630Z,8.61
2024-01-15T10:47:04.218Z,8.66
2024-01-15T10:49:33.483Z,8.70
2024-01-15T10:52:04.891Z,8.72
2024-01-15T10:54:33.298Z,8.79
2024-01-15T10:57:00.186Z,8.83
2024-01-15T10:59:27.042Z,8.85
2024-01-15T11:01:55.945Z,8.76
2024-01-15T11:04:26.221Z,8.97
2024-01-15T11:06:56.082Z,9.09
2024-01-15T11:09:25.338Z,9.11
2024-01-15T11:12:12.822Z,9.25
2024-01-15T11:14:46.978Z,9.36
2024-01-15T11:17:15.033Z,9.52
2024-01-15T11:19:46.019Z,9.62
2024-01-15T11:22:31.253Z,9.86
2024-01-15T11:25:02.875Z,9.91
2024-01-15T11:27:48.735Z,10.05
2024-01-15T11:30:16.161Z,10.03
2024-01-15T11:32:43.817Z,10.05
2024-01-15T11:35:12.417Z,10.13
2024-01-15T11:38:00.632Z,10.10
2024-01-15T11:40:34.141Z,10.14
2024-01-15T11:43:01.626Z,10.21
2024-01-15T11:45:29.189Z,10.16
2024-01-15T11:48:15.342Z,10.34
2024-01-15T11:50:47.662Z,10.31
2024-01-15T11:53:46.646Z,10.42
2024-01-15T11:56:17.913Z,10.44
2024-01-15T11:58:45.233Z,10.45
2024-01-15T12:01:12.537Z,10.36
2024-01-15T12:03:39.495Z,10.60
2024-01-15T12:06:08.345Z,10.70
2024-01-15T12:08:36.084Z,10.75
2024-01-15T12:11:15.041Z,10.79
2024-01-15T12:13:42.328Z,10.89
2024-01-15T12:16:09.507Z,11.00
2024-01-15T12:18:36.810Z,11.08
2024-01-15T12:21:05.439Z,11.21
2024-01-15T12:23:32.358Z,11.21
2024-01-15T12:25:59.457Z,11.20
2024-01-15T12:28:28.944Z,11.29
2024-01-15T12:30:57.652Z,11.33
2024-01-15T12:33:24.608Z,11.37
2024-01-15T12:35:54.510Z,11.42
2024-01-15T12:38:21.957Z,11.40
2024-01-15T12:40:49.600Z,11.39
2024-01-15T12:43:16.486Z,11.43
2024-01-15T12:45:44.412Z,11.50
2024-01-15T12:48:11.704Z,11.48
2024-01-15T12:50:38.610Z,11.52
2024-01-15T12:53:05.594Z,11.51
2024-01-15T12:55:32.694Z,11.60
2024-01-15T12:57:59.774Z,11.64
2024-01-15T13:00:27.298Z,11.69
2024-01-15T13:02:56.023Z,11.75
2024-01-15T13:05:24.095Z,11.84
2024-01-15T13:07:51.401Z,11.95
2024-01-15T13:10:18.159Z,11.94
2024-01-15T13:12:44.953Z,12.03
2024-01-15T13:15:15.524Z,12.17
2024-01-15T13:17:44.194Z,12.10
2024-01-15T13:20:12.665Z,12.15
2024-01-15T13:22:42.717Z,12.21
2024-01-15T13:25:10.222Z,12.24
2024-01-15T13:27:38.751Z,12.26
2024-01-15T13:30:08.451Z,12.30
2024-01-15T13:32:35.354Z,12.31
2024-01-15T13:35:02.333Z,12.37
2024-01-15T13:37:29.150Z,12.36
2024-01-15T13:39:56.180Z,12.43
2024-01-15T13:42:23.703Z,12.34
2024-01-15T13:44:51.248Z,12.33
2024-01-15T13:47:18.093Z,12.38
2024-01-15T13:49:44.915Z,12.32
2024-01-15T13:52:11.829Z,12.35
2024-01-15T13:54:48.122Z,12.34
2024-01-15T13:57:18.186Z,12.28
2024-01-15T13:59:45.288Z,12.23
2024-01-15T14:02:12.218Z,12.25
2024-01-15T14:04:40.319Z,12.22
2024-01-15T14:07:07.477Z,12.19
2024-01-15T14:09:34.933Z,12.17
2024-01-15T14:12:01.877Z,12.20
2024-01-15T14:14:28.883Z,12.11
2024-01-15T14:16:55.617Z,12.03
2024-01-15T14:19:22.982Z,12.05
2024-01-15T14:21:50.387Z,12.04
2024-01-15T14:24:18.754Z,12.00
2024-01-15T14:26:46.585Z,11.83
2024-01-15T14:29:13.580Z,11.70
2024-01-15T14:31:40.696Z,11.62
2024-01-15T14:34:09.168Z,11.61
2024-01-15T14:36:36.579Z,11.54
2024-01-15T14:39:03.939Z,11.62
2024-01-15T14:41:31.396Z,11.48
2024-01-15T14:43:58.644Z,11.48
2024-01-15T14:46:28.710Z,11.42
2024-01-15T14:48:55.686Z,11.27
2024-01-15T14:51:22.547Z,11.21
2024-01-15T14:53:49.422Z,11.20
2024-01-15T14:56:18.455Z,11.14
2024-01-15T14:58:48.271Z,11.08
2024-01-15T15:01:15.199Z,11.15
2024-01-15T15:03:43.326Z,11.06
2024-01-15T15:06:10.427Z,11.15
2024-01-15T15:08:38.167Z,11.10
2024-01-15T15:11:05.675Z,10.83
2024-01-15T15:13:41.718Z,10.91
2024-01-15T15:16:15.302Z,10.90
2024-01-15T15:18:48.018Z,10.75
2024-01-15T15:21:15.145Z,10.63
2024-01-15T15:23:42.068Z,10.33
2024-01-15T15:26:08.825Z,10.33
2024-01-15T15:28:38.797Z,10.26
2024-01-15T15:31:14.166Z,10.13
2024-01-15T15:33:56.228Z,9.93
2024-01-15T15:36:23.143Z,9.79
2024-01-15T15:38:50.126Z,9.64
2024-01-15T15:41:16.911Z,9.66
2024-01-15T15:43:43.667Z,9.66
2024-01-15T15:46:10.501Z,9.66
2024-01-15T15:48:37.411Z,9.76
2024-01-15T15:51:05.069Z,9.70
2024-01-15T15:53:31.827Z,9.56
2024-01-15T15:55:59.831Z,9.51
2024-01-15T15:58:26.754Z,9.38
2024-01-15T16:00:54.117Z,9.28
2024-01-15T16:03:21.084Z,9.32
2024-01-15T16:05:52.899Z,9.43
2024-01-15T16:08:21.652Z,9.22
2024-01-15T16:10:53.377Z,9.13
2024-01-15T16:13:23.030Z,9.09
2024-01-15T16:15:50.651Z,9.18
2024-01-15T16:23:20.371Z,9.15
2024-01-15T16:23:34.912Z,9.08
2024-01-15T16:24:12.688Z,9.05
2024-01-15T16:26:43.357Z,9.01
2024-01-15T16:29:11.018Z,8.98
2024-01-15T16:31:39.153Z,9.08
2024-01-15T16:34:10.778Z,8.95
2024-01-15T16:36:39.225Z,8.95
2024-01-15T16:39:06.127Z,9.04
2024-01-15T16:41:33.957Z,8.93
2024-01-15T16:44:00.942Z,8.87
2024-01-15T16:46:27.702Z,8.89
2024-01-15T16:48:54.610Z,8.93
2024-01-15T16:51:21.630Z,8.91
2024-01-15T16:53:48.369Z,8.85
2024-01-15T16:56:15.411Z,8.77
2024-01-15T16:58:42.198Z,8.65
2024-01-15T17:01:09.555Z,8.75
2024-01-15T17:03:36.633Z,8.52
2024-01-15T17:06:03.665Z,8.42
2024-01-15T17:08:30.520Z,8.49
2024-01-15T17:10:58.096Z,8.44
2024-01-15T17:13:25.755Z,8.50
2024-01-15T17:15:52.572Z,8.49
2024-01-15T17:18:19.767Z,8.51
2024-01-15T17:20:47.228Z,8.53
2024-01-15T17:23:14.297Z,8.56
2024-01-15T17:25:41.645Z,8.50
2024-01-15T17:28:08.405Z,8.42
2024-01-15T17:30:35.227Z,8.37
2024-01-15T17:33:02.066Z,8.32
2024-01-15T17:35:29.588Z,8.29
2024-01-15T17:37:56.483Z,8.27
2024-01-15T17:40:23.709Z,8.28
2024-01-15T17:42:51.067Z,8.36
2024-01-15T17:45:19.636Z,8.38
2024-01-15T17:47:46.990Z,8.37
2024-01-15T17:50:14.073Z,8.35
2024-01-15T17:52:41.075Z,8.44
2024-01-15T17:55:08.705Z,8.37
2024-01-15T17:57:35.437Z,8.22
2024-01-15T18:00:02.319Z,8.32
2024-01-15T18:02:34.792Z,8.30
2024-01-15T18:05:01.611Z,8.41
2024-01-15T18:07:28.884Z,8.31
2024-01-15T18:09:56.595Z,8.35
2024-01-15T18:12:25.363Z,8.49
2024-01-15T18:14:52.227Z,8.28
2024-01-15T18:17:19.176Z,8.31
2024-01-15T18:19:45.954Z,8.45
2024-01-15T18:22:14.117Z,8.42
2024-01-15T18:24:41.055Z,8.22
2024-01-15T18:27:09.659Z,8.24
2024-01-15T18:29:36.535Z,8.30
2024-01-15T18:32:04.663Z,8.29
2024-01-15T18:34:31.865Z,8.20
2024-01-15T18:36:58.618Z,8.29
2024-01-15T18:39:25.452Z,8.30
2024-01-15T18:41:52.448Z,8.26
2024-01-15T18:44:19.369Z,8.16
2024-01-15T18:46:47.053Z,8.21
2024-01-15T18:49:15.286Z,8.08
2024-01-15T18:51:42.075Z,8.08
2024-01-15T18:54:09.037Z,8.02
2024-01-15T18:56:41.915Z,8.15
2024-01-15T18:59:09.334Z,8.08
2024-01-15T19:01:37.437Z,7.80
2024-01-15T19:04:04.624Z,8.09
2024-01-15T19:06:31.717Z,8.00
2024-01-15T19:08:58.607Z,7.98
2024-01-15T19:11:25.440Z,7.90
2024-01-15T19:13:53.043Z,7.87
2024-01-15T19:16:23.600Z,7.98
2024-01-15T19:18:51.720Z,7.87
2024-01-15T19:21:20.050Z,7.82
2024-01-15T19:23:47.133Z,7.82
2024-01-15T19:26:32.824Z,7.85
2024-01-15T19:29:00.802Z,7.65
2024-01-15T19:31:30.864Z,7.61
2024-01-15T19:34:00.267Z,7.80
2024-01-15T19:36:29.369Z,7.72
2024-01-15T19:38:56.139Z,7.72
2024-01-15T19:41:23.585Z,7.63
2024-01-15T19:43:50.437Z,7.57
2024-01-15T19:46:18.262Z,7.57
2024-01-15T19:48:45.092Z,7.66
2024-01-15T19:51:15.534Z,7.49
2024-01-15T19:53:46.568Z,7.18
2024-01-15T19:56:18.225Z,7.43
2024-01-15T19:58:46.869Z,7.51
2024-01-15T20:01:13.724Z,7.54
2024-01-15T20:03:42.331Z,7.45
2024-01-15T20:06:14.727Z,7.49
2024-01-15T20:08:44.667Z,7.39
2024-01-15T20:11:15.285Z,7.36
2024-01-15T20:13:43.148Z,7.30
2024-01-15T20:16:14.163Z,7.28
2024-01-15T20:18:42.769Z,7.16
2024-01-15T20:21:09.808Z,7.14
2024-01-15T20:23:43.163Z,7.30
2024-01-15T20:26:17.497Z,7.35
2024-01-15T20:28:47.771Z,7.29
2024-01-15T20:31:15.193Z,7.18
2024-01-15T20:33:42.183Z,7.22
2024-01-15T20:36:09.937Z,7.09
2024-01-15T20:38:37.297Z,7.06
2024-01-15T20:41:05.285Z,7.14
2024-01-15T20:43:36.056Z,7.02
2024-01-15T20:46:03.921Z,7.16
2024-01-15T20:48:31.003Z,7.05
2024-01-15T20:50:59.579Z,7.13
2024-01-15T20:53:26.914Z,7.12
2024-01-15T20:55:53.810Z,6.97
2024-01-15T20:58:27.179Z,6.96
2024-01-15T21:00:55.745Z,6.97
2024-01-15T21:03:23.802Z,7.07
2024-01-15T21:05:50.989Z,7.06
2024-01-15T21:08:17.945Z,7.14
2024-01-15T21:10:44.873Z,7.08
2024-01-15T21:13:11.592Z,7.19
2024-01-15T21:15:38.364Z,7.15
2024-01-15T21:18:05.702Z,7.04
2024-01-15T21:20:33.522Z,6.98
2024-01-15T21:23:00.943Z,6.96
2024-01-15T21:25:27.970Z,6.92
2024-01-15T21:27:54.962Z,6.91
2024-01-15T21:30:22.962Z,6.85
2024-01-15T21:32:50.048Z,6.80
2024-01-15T21:35:17.055Z,6.89
2024-01-15T21:37:44.400Z,6.85
2024-01-15T21:40:11.612Z,6.92
2024-01-15T21:42:39.268Z,6.88
2024-01-15T21:45:09.121Z,6.88
2024-01-15T21:47:38.263Z,7.02
2024-01-15T21:50:06.527Z,6.89
2024-01-15T21:52:33.811Z,6.66
2024-01-15T21:55:00.556Z,6.89
2024-01-15T21:57:27.691Z,7.01
2024-01-15T21:59:54.607Z,6.95
2024-01-15T22:02:21.746Z,6.72
2024-01-15T22:04:48.664Z,6.80
2024-01-15T22:07:15.681Z,6.86
2024-01-15T22:09:42.936Z,6.86
2024-01-15T22:12:09.772Z,6.93
2024-01-15T22:14:36.593Z,6.81
2024-01-15T22:17:03.548Z,6.74
2024-01-15T22:19:30.465Z,6.76
2024-01-15T22:21:57.584Z,6.70
2024-01-15T22:24:24.333Z,6.74
2024-01-15T22:26:51.184Z,6.55
2024-01-15T22:29:18.787Z,6.69
2024-01-15T22:31:45.625Z,6.76
2024-01-15T22:34:12.548Z,6.81
2024-01-15T22:36:39.804Z,6.74
2024-01-15T22:39:06.680Z,6.74
2024-01-15T22:41:33.568Z,6.72
2024-01-15T22:44:00.362Z,6.71
2024-01-15T22:46:27.264Z,6.71
2024-01-15T22:48:54.216Z,6.62
2024-01-15T22:51:21.250Z,6.65
2024-01-15T22:53:48.081Z,6.61
2024-01-15T22:56:15.010Z,6.63
2024-01-15T22:58:41.840Z,6.58
2024-01-15T23:01:08.736Z,6.51
2024-01-15T23:03:35.580Z,6.54
2024-01-15T23:06:02.474Z,6.49
2024-01-15T23:08:30.509Z,6.41
2024-01-15T23:10:57.296Z,6.53
2024-01-15T23:13:24.045Z,6.54
2024-01-15T23:15:50.719Z,6.37
2024-01-15T23:18:17.616Z,6.54
2024-01-15T23:20:44.669Z,6.57
2024-01-15T23:23:11.764Z,6.53
2024-01-15T23:25:39.441Z,6.54
2024-01-15T23:28:08.212Z,6.53
2024-01-15T23:30:35.034Z,6.50
2024-01-15T23:33:02.166Z,6.50
2024-01-15T23:35:29.048Z,6.50
2024-01-15T23:37:55.962Z,6.36
2024-01-15T23:40:22.693Z,6.53
2024-01-15T23:42:49.502Z,6.60
2024-01-15T23:45:16.186Z,6.56
2024-01-15T23:47:43.013Z,6.67
2024-01-15T23:50:10.027Z,6.58
2024-01-15T23:52:36.829Z,6.44
2024-01-15T23:55:03.847Z,6.51
2024-01-15T23:57:30.662Z,6.37
2024-01-15T23:59:57.522Z,6.53
